createdAt,value
2022-09-12T00:04:16.021Z,101349.72
2022-09-12T00:09:17.499Z,101340.97
2022-09-12T00:14:19.059Z,101348.88
2022-09-12T00:19:20.571Z,101346.63
2022-09-12T00:24:22.233Z,101342.41
2022-09-12T00:29:23.742Z,101355.19
2022-09-12T00:34:25.259Z,101338.94
2022-09-12T00:39:26.750Z,101331.03
2022-09-12T00:44:28.320Z,101329.91
2022-09-12T00:49:32.724Z,101323.88
2022-09-12T00:54:43.964Z,101314.31
2022-09-12T00:59:48.714Z,101317.41
2022-09-12T01:04:50.209Z,101316.22
2022-09-12T01:09:51.728Z,101307.94
2022-09-12T01:14:53.207Z,101315.41
2022-09-12T01:20:13.455Z,101308.84
2022-09-12T01:25:33.925Z,101302.25
2022-09-12T01:30:49.755Z,101305.41
2022-09-12T01:36:04.540Z,101297.09
2022-09-12T01:41:21.257Z,101313.03
2022-09-12T01:46:33.184Z,101298.38
2022-09-12T01:51:39.736Z,101292.50
2022-09-12T01:56:41.595Z,101293.06
2022-09-12T02:01:56.034Z,101292.84
2022-09-12T02:07:03.735Z,101285.63
2022-09-12T02:12:05.907Z,101288.19
2022-09-12T02:17:12.220Z,101271.06
2022-09-12T02:22:16.039Z,101264.06
2022-09-12T02:27:37.897Z,101260.69
2022-09-12T02:32:48.915Z,101251.38
2022-09-12T02:38:00.962Z,101251.84
2022-09-12T02:43:03.271Z,101249.97
2022-09-12T02:48:08.414Z,101246.00
2022-09-12T02:53:09.888Z,101238.75
2022-09-12T02:58:13.638Z,101227.28
2022-09-12T03:03:43.174Z,101233.03
2022-09-12T03:08:57.315Z,101227.97
2022-09-12T03:14:21.272Z,101217.75
2022-09-12T03:19:45.166Z,101210.81
2022-09-12T03:25:04.658Z,101217.56
2022-09-12T03:30:06.729Z,101201.63
2022-09-12T03:35:08.170Z,101190.63
2022-09-12T03:40:10.488Z,101192.66
2022-09-12T03:45:12.117Z,101177.50
2022-09-12T03:50:13.594Z,101186.00
2022-09-12T03:55:15.238Z,101186.00
2022-09-12T04:00:19.838Z,101186.16
2022-09-12T04:05:21.550Z,101178.59
2022-09-12T04:10:23.042Z,101173.66
2022-09-12T04:15:25.598Z,101177.72
2022-09-12T04:20:27.070Z,101171.09
2022-09-12T04:25:28.530Z,101186.28
2022-09-12T04:30:30.118Z,101189.25
2022-09-12T04:35:31.650Z,101174.09
2022-09-12T04:40:33.324Z,101179.38
2022-09-12T04:45:34.848Z,101175.94
2022-09-12T04:50:36.348Z,101167.84
2022-09-12T04:55:37.823Z,101173.34
2022-09-12T05:00:39.291Z,101172.88
2022-09-12T05:05:40.782Z,101166.06
2022-09-12T05:10:42.785Z,101157.41
2022-09-12T05:15:44.619Z,101163.91
2022-09-12T05:20:46.087Z,101163.91
2022-09-12T05:25:54.919Z,101160.13
2022-09-12T05:31:13.130Z,101152.88
2022-09-12T05:36:25.032Z,101147.75
2022-09-12T05:41:29.365Z,101158.81
2022-09-12T05:46:32.167Z,101156.19
2022-09-12T05:51:35.212Z,101171.44
2022-09-12T05:56:41.448Z,101168.88
2022-09-12T06:01:43.055Z,101173.66
2022-09-12T06:06:48.712Z,101162.94
2022-09-12T06:11:50.215Z,101166.75
2022-09-12T06:16:51.716Z,101176.69
2022-09-12T06:21:53.500Z,101178.19
2022-09-12T06:26:54.971Z,101169.94
2022-09-12T06:31:56.434Z,101164.97
2022-09-12T06:36:57.933Z,101150.31
2022-09-12T06:41:59.398Z,101153.06
2022-09-12T06:47:00.906Z,101152.72
2022-09-12T06:52:02.730Z,101149.38
2022-09-12T06:57:04.252Z,101134.72
2022-09-12T07:02:06.140Z,101136.28
2022-09-12T07:07:07.657Z,101133.09
2022-09-12T07:12:09.211Z,101146.84
2022-09-12T07:17:10.723Z,101149.66
2022-09-12T07:22:12.284Z,101151.91
2022-09-12T07:27:13.756Z,101147.41
2022-09-12T07:32:15.226Z,101144.22
2022-09-12T07:37:16.728Z,101147.16
2022-09-12T07:42:18.240Z,101152.03
2022-09-12T07:47:19.720Z,101148.03
2022-09-12T07:52:21.240Z,101143.91
2022-09-12T07:57:22.951Z,101141.47
2022-09-12T08:02:24.453Z,101138.06
2022-09-12T08:07:26.005Z,101138.91
2022-09-12T08:12:27.984Z,101148.84
2022-09-12T08:17:29.787Z,101135.53
2022-09-12T08:22:31.461Z,101134.44
2022-09-12T08:27:32.924Z,101137.72
2022-09-12T08:32:34.631Z,101135.88
2022-09-12T08:37:36.116Z,101137.84
2022-09-12T08:42:43.485Z,101145.22
2022-09-12T08:47:45.072Z,101146.56
2022-09-12T08:52:53.694Z,101140.88
2022-09-12T08:57:55.283Z,101146.31
2022-09-12T09:03:02.636Z,101136.38
2022-09-12T09:08:29.664Z,101145.63
2022-09-12T09:14:19.102Z,101144.13
2022-09-12T09:19:23.319Z,101135.16
2022-09-12T09:24:38.647Z,101141.28
2022-09-12T09:29:45.374Z,101143.38
2022-09-12T09:34:46.876Z,101143.53
2022-09-12T09:39:57.277Z,101130.31
2022-09-12T09:45:00.079Z,101127.19
2022-09-12T09:50:01.560Z,101116.03
2022-09-12T09:55:03.096Z,101127.22
2022-09-12T10:00:25.794Z,101119.88
2022-09-12T10:05:28.549Z,101109.97
2022-09-12T10:10:30.036Z,101105.72
2022-09-12T10:15:31.860Z,101104.78
2022-09-12T10:20:43.928Z,101105.84
2022-09-12T10:25:48.920Z,101081.00
2022-09-12T10:30:53.334Z,101082.72
2022-09-12T10:35:55.117Z,101085.63
2022-09-12T10:41:03.626Z,101084.50
2022-09-12T10:46:21.579Z,101069.28
2022-09-12T10:51:26.011Z,101058.34
2022-09-12T10:56:39.295Z,101082.38
2022-09-12T11:01:54.861Z,101069.16
2022-09-12T11:07:06.467Z,101068.19
2022-09-12T11:12:28.080Z,101068.34
2022-09-12T11:17:53.515Z,101072.25
2022-09-12T11:23:40.535Z,101069.66
2022-09-12T11:29:00.880Z,101057.22
2022-09-12T11:34:03.180Z,101059.41
2022-09-12T11:39:15.813Z,101054.66
2022-09-12T11:44:24.739Z,101048.09
2022-09-12T11:49:36.084Z,101053.41
2022-09-12T11:54:53.964Z,101044.75
2022-09-12T12:00:07.918Z,101038.19
2022-09-12T12:05:37.509Z,101036.84
2022-09-12T12:10:39.812Z,101036.09
2022-09-12T12:15:48.516Z,101033.59
2022-09-12T12:20:50.526Z,101024.75
2022-09-12T12:25:53.873Z,101029.22
2022-09-12T12:30:55.277Z,101025.22
2022-09-12T12:35:59.500Z,101022.03
2022-09-12T12:41:18.984Z,101015.38
2022-09-12T12:46:24.044Z,101006.97
2022-09-12T12:51:53.807Z,101001.56
2022-09-12T12:57:24.851Z,101000.19
2022-09-12T13:02:31.695Z,100993.22
2022-09-12T13:07:36.229Z,100988.47
2022-09-12T13:12:43.906Z,100980.66
2022-09-12T13:17:46.828Z,100966.28
2022-09-12T13:22:49.886Z,100961.66
2022-09-12T13:28:07.500Z,100958.59
2022-09-12T13:33:18.495Z,100944.47
2022-09-12T13:38:30.315Z,100949.06
2022-09-12T13:43:37.940Z,100939.28
2022-09-12T13:48:39.428Z,100933.00
2022-09-12T13:53:43.911Z,100931.44
2022-09-12T13:58:56.750Z,100918.00
2022-09-12T14:04:16.395Z,100908.13
2022-09-12T14:09:34.564Z,100908.94
2022-09-12T14:14:37.375Z,100898.56
2022-09-12T14:19:39.853Z,100894.44
2022-09-12T14:24:41.330Z,100889.78
2022-09-12T14:29:43.993Z,100884.84
2022-09-12T14:35:21.927Z,100884.59
2022-09-12T14:40:23.795Z,100886.50
2022-09-12T14:45:34.534Z,100862.56
2022-09-12T14:50:36.019Z,100858.25
2022-09-12T14:55:44.578Z,100856.47
2022-09-12T15:01:12.368Z,100856.97
2022-09-12T15:06:28.436Z,100850.59
2022-09-12T15:11:29.943Z,100866.56
2022-09-12T15:16:31.407Z,100857.50
2022-09-12T15:21:32.897Z,100843.00
2022-09-12T15:26:34.386Z,100836.81
2022-09-12T15:31:35.929Z,100819.09
2022-09-12T15:36:37.456Z,100813.44
2022-09-12T15:41:39.103Z,100808.25
2022-09-12T15:46:40.888Z,100804.66
2022-09-12T15:51:42.389Z,100788.13
2022-09-12T15:56:43.943Z,100797.88
2022-09-12T16:01:45.463Z,100791.06
2022-09-12T16:06:47.041Z,100783.13
2022-09-12T16:11:48.570Z,100774.19
2022-09-12T16:16:59.484Z,100765.69
2022-09-12T16:22:00.959Z,100765.00
2022-09-12T16:27:02.437Z,100757.75
2022-09-12T16:32:04.111Z,100754.69
2022-09-12T16:37:05.735Z,100751.56
2022-09-12T16:42:07.236Z,100738.75
2022-09-12T16:47:08.725Z,100737.53
2022-09-12T16:52:10.864Z,100725.41
2022-09-12T16:57:12.331Z,100717.59
2022-09-12T17:02:14.085Z,100716.34
2022-09-12T17:07:15.583Z,100711.72
2022-09-12T17:12:17.058Z,100701.81
2022-09-12T17:17:18.538Z,100689.81
2022-09-12T17:22:20.032Z,100687.31
2022-09-12T17:27:21.593Z,100680.34
2022-09-12T17:32:23.157Z,100670.44
2022-09-12T17:37:24.658Z,100662.38
2022-09-12T17:42:26.138Z,100654.84
2022-09-12T17:47:27.638Z,100656.97
2022-09-12T17:52:29.931Z,100638.13
2022-09-12T17:57:31.391Z,100648.56
2022-09-12T18:02:33.486Z,100648.59
2022-09-12T18:07:38.921Z,100657.28
2022-09-12T18:12:43.012Z,100646.56
2022-09-12T18:17:44.490Z,100647.59
2022-09-12T18:22:49.159Z,100641.50
2022-09-12T18:27:50.628Z,100640.09
2022-09-12T18:32:52.149Z,100635.59
2022-09-12T18:37:53.808Z,100631.91
2022-09-12T18:42:55.295Z,100621.47
2022-09-12T18:47:56.772Z,100623.88
2022-09-12T18:52:59.863Z,100622.78
2022-09-12T18:58:01.581Z,100621.63
2022-09-12T19:03:03.070Z,100600.41
2022-09-12T19:08:04.832Z,100590.19
2022-09-12T19:13:06.477Z,100592.28
2022-09-12T19:18:09.485Z,100581.28
2022-09-12T19:23:10.999Z,100579.19
2022-09-12T19:28:12.480Z,100567.34
2022-09-12T19:33:13.959Z,100570.59
2022-09-12T19:38:15.719Z,100553.28
2022-09-12T19:43:17.201Z,100555.78
2022-09-12T19:48:19.516Z,100542.47
2022-09-12T19:53:21.192Z,100526.19
2022-09-12T19:58:22.660Z,100529.34
2022-09-12T20:03:24.179Z,100528.81
2022-09-12T20:08:25.675Z,100520.59
2022-09-12T20:13:27.675Z,100523.25
2022-09-12T20:18:29.188Z,100521.97
2022-09-12T20:23:30.873Z,100512.53
2022-09-12T20:28:32.510Z,100516.28
2022-09-12T20:33:34.082Z,100499.47
2022-09-12T20:38:35.936Z,100494.88
2022-09-12T20:43:38.603Z,100492.47
2022-09-12T20:48:40.093Z,100486.09
2022-09-12T20:53:41.568Z,100487.91
2022-09-12T20:58:44.424Z,100480.81
2022-09-12T21:03:46.398Z,100481.22
2022-09-12T21:08:48.077Z,100489.72
2022-09-12T21:13:50.259Z,100509.69
2022-09-12T21:18:56.125Z,100514.84
2022-09-12T21:24:02.296Z,100506.84
2022-09-12T21:29:03.786Z,100515.97
2022-09-12T21:34:05.417Z,100509.78
2022-09-12T21:39:06.924Z,100501.41
2022-09-12T21:44:08.592Z,100506.84
2022-09-12T21:49:10.067Z,100497.25
2022-09-12T21:54:11.549Z,100478.66
2022-09-12T21:59:13.033Z,100499.69
2022-09-12T22:04:14.548Z,100496.50
2022-09-12T22:09:16.913Z,100495.16
2022-09-12T22:14:18.537Z,100468.78
2022-09-12T22:19:20.132Z,100472.25
2022-09-12T22:24:27.467Z,100455.31
2022-09-12T22:29:28.954Z,100424.66
2022-09-12T22:34:30.496Z,100394.16
2022-09-12T22:39:32.155Z,100365.97
2022-09-12T22:44:34.114Z,100369.56
2022-09-12T22:49:35.617Z,100389.59
2022-09-12T22:54:37.672Z,100376.91
2022-09-12T22:59:39.035Z,100365.06
2022-09-12T23:04:40.617Z,100369.94
2022-09-12T23:09:42.105Z,100370.34
2022-09-12T23:14:43.603Z,100369.91
2022-09-12T23:19:45.364Z,100355.22
2022-09-12T23:24:47.178Z,100354.78
2022-09-12T23:29:52.792Z,100354.56
2022-09-12T23:34:54.263Z,100351.59
2022-09-12T23:39:55.801Z,100350.03
2022-09-12T23:44:57.395Z,100343.75
2022-09-12T23:49:58.911Z,100338.25
2022-09-12T23:55:00.378Z,100325.44
